sensor_id;sensor_type;location;lat;lon;timestamp;temperature;humidity
66608;DHT22;53462;39.616;8.824;2022-08-23T00:01:05;21.60;83.20
66608;DHT22;53462;39.616;8.824;2022-08-23T00:03:32;21.60;83.50
66608;DHT22;53462;39.616;8.824;2022-08-23T00:05:58;21.70;83.30
66608;DHT22;53462;39.616;8.824;2022-08-23T00:08:24;21.50;83.50
66608;DHT22;53462;39.616;8.824;2022-08-23T00:10:50;21.40;83.70
66608;DHT22;53462;39.616;8.824;2022-08-23T00:13:16;21.50;84.20
66608;DHT22;53462;39.616;8.824;2022-08-23T00:15:42;21.50;84.00
66608;DHT22;53462;39.616;8.824;2022-08-23T00:18:08;21.50;83.90
66608;DHT22;53462;39.616;8.824;2022-08-23T00:20:34;21.50;84.00
66608;DHT22;53462;39.616;8.824;2022-08-23T00:23:00;21.50;84.20
66608;DHT22;53462;39.616;8.824;2022-08-23T00:25:26;21.40;84.40
66608;DHT22;53462;39.616;8.824;2022-08-23T00:27:52;21.40;84.60
66608;DHT22;53462;39.616;8.824;2022-08-23T00:30:18;21.50;84.40
66608;DHT22;53462;39.616;8.824;2022-08-23T00:32:44;21.50;84.30
66608;DHT22;53462;39.616;8.824;2022-08-23T00:35:12;21.60;84.20
66608;DHT22;53462;39.616;8.824;2022-08-23T00:37:38;21.60;83.80
66608;DHT22;53462;39.616;8.824;2022-08-23T00:40:09;21.50;83.80
66608;DHT22;53462;39.616;8.824;2022-08-23T00:42:59;21.40;84.20
66608;DHT22;53462;39.616;8.824;2022-08-23T00:48:38;21.50;84.70
66608;DHT22;53462;39.616;8.824;2022-08-23T00:51:22;21.60;84.40
66608;DHT22;53462;39.616;8.824;2022-08-23T00:53:55;21.60;83.90
66608;DHT22;53462;39.616;8.824;2022-08-23T00:56:24;21.60;83.90
66608;DHT22;53462;39.616;8.824;2022-08-23T00:58:52;21.60;83.60
66608;DHT22;53462;39.616;8.824;2022-08-23T01:01:18;21.60;83.80
66608;DHT22;53462;39.616;8.824;2022-08-23T01:03:49;21.50;84.10
66608;DHT22;53462;39.616;8.824;2022-08-23T01:08:54;21.40;84.60
66608;DHT22;53462;39.616;8.824;2022-08-23T01:11:29;21.40;84.50
66608;DHT22;53462;39.616;8.824;2022-08-23T01:16:58;21.20;84.40
66608;DHT22;53462;39.616;8.824;2022-08-23T01:19:33;21.20;84.80
66608;DHT22;53462;39.616;8.824;2022-08-23T01:22:15;21.10;85.30
66608;DHT22;53462;39.616;8.824;2022-08-23T01:24:44;21.10;85.60
66608;DHT22;53462;39.616;8.824;2022-08-23T01:27:12;21.10;85.50
66608;DHT22;53462;39.616;8.824;2022-08-23T01:29:40;21.20;85.70
66608;DHT22;53462;39.616;8.824;2022-08-23T01:32:10;21.20;85.50
66608;DHT22;53462;39.616;8.824;2022-08-23T01:34:37;21.20;85.40
66608;DHT22;53462;39.616;8.824;2022-08-23T01:37:07;21.30;85.30
66608;DHT22;53462;39.616;8.824;2022-08-23T01:39:34;21.30;85.40
66608;DHT22;53462;39.616;8.824;2022-08-23T01:42:02;21.20;86.00
66608;DHT22;53462;39.616;8.824;2022-08-23T01:44:28;21.30;86.10
66608;DHT22;53462;39.616;8.824;2022-08-23T01:46:55;21.30;85.50
66608;DHT22;53462;39.616;8.824;2022-08-23T01:49:21;21.20;85.40
66608;DHT22;53462;39.616;8.824;2022-08-23T01:51:47;21.10;85.50
66608;DHT22;53462;39.616;8.824;2022-08-23T01:54:13;21.10;85.90
66608;DHT22;53462;39.616;8.824;2022-08-23T01:56:40;21.00;86.40
66608;DHT22;53462;39.616;8.824;2022-08-23T01:59:10;21.00;86.80
66608;DHT22;53462;39.616;8.824;2022-08-23T02:01:42;21.10;87.10
66608;DHT22;53462;39.616;8.824;2022-08-23T02:04:08;21.20;87.40
66608;DHT22;53462;39.616;8.824;2022-08-23T02:06:34;21.10;87.10
66608;DHT22;53462;39.616;8.824;2022-08-23T02:09:04;21.10;87.10
66608;DHT22;53462;39.616;8.824;2022-08-23T02:11:40;21.20;87.00
66608;DHT22;53462;39.616;8.824;2022-08-23T02:14:10;21.30;86.70
66608;DHT22;53462;39.616;8.824;2022-08-23T02:16:47;21.30;86.30
66608;DHT22;53462;39.616;8.824;2022-08-23T02:19:14;21.30;86.00
66608;DHT22;53462;39.616;8.824;2022-08-23T02:21:42;21.40;86.00
66608;DHT22;53462;39.616;8.824;2022-08-23T02:24:18;21.40;85.90
66608;DHT22;53462;39.616;8.824;2022-08-23T02:26:47;21.50;85.30
66608;DHT22;53462;39.616;8.824;2022-08-23T02:29:16;21.30;85.30
66608;DHT22;53462;39.616;8.824;2022-08-23T02:31:43;21.20;85.70
66608;DHT22;53462;39.616;8.824;2022-08-23T02:34:11;21.10;86.00
66608;DHT22;53462;39.616;8.824;2022-08-23T02:36:38;21.00;86.50
66608;DHT22;53462;39.616;8.824;2022-08-23T02:39:06;21.00;86.80
66608;DHT22;53462;39.616;8.824;2022-08-23T02:41:33;20.90;86.70
66608;DHT22;53462;39.616;8.824;2022-08-23T02:44:01;21.10;86.90
66608;DHT22;53462;39.616;8.824;2022-08-23T02:46:28;21.20;86.60
66608;DHT22;53462;39.616;8.824;2022-08-23T02:48:55;21.10;86.30
66608;DHT22;53462;39.616;8.824;2022-08-23T02:51:23;21.10;86.90
66608;DHT22;53462;39.616;8.824;2022-08-23T02:53:49;21.00;87.00
66608;DHT22;53462;39.616;8.824;2022-08-23T02:56:18;21.00;87.00
66608;DHT22;53462;39.616;8.824;2022-08-23T02:58:44;21.10;87.10
66608;DHT22;53462;39.616;8.824;2022-08-23T03:01:37;21.00;86.90
66608;DHT22;53462;39.616;8.824;2022-08-23T03:04:12;21.00;87.00
66608;DHT22;53462;39.616;8.824;2022-08-23T03:06:39;21.00;87.10
66608;DHT22;53462;39.616;8.824;2022-08-23T03:09:06;21.10;87.10
66608;DHT22;53462;39.616;8.824;2022-08-23T03:11:33;21.20;87.30
66608;DHT22;53462;39.616;8.824;2022-08-23T03:14:00;21.20;87.30
66608;DHT22;53462;39.616;8.824;2022-08-23T03:16:27;21.20;87.10
66608;DHT22;53462;39.616;8.824;2022-08-23T03:18:54;21.10;87.00
66608;DHT22;53462;39.616;8.824;2022-08-23T03:21:20;21.10;87.00
66608;DHT22;53462;39.616;8.824;2022-08-23T03:23:46;21.10;86.80
66608;DHT22;53462;39.616;8.824;2022-08-23T03:26:14;21.00;87.30
66608;DHT22;53462;39.616;8.824;2022-08-23T03:28:42;20.80;87.80
66608;DHT22;53462;39.616;8.824;2022-08-23T03:31:10;20.70;88.40
66608;DHT22;53462;39.616;8.824;2022-08-23T03:33:49;20.60;88.70
66608;DHT22;53462;39.616;8.824;2022-08-23T03:36:16;20.50;88.90
66608;DHT22;53462;39.616;8.824;2022-08-23T03:38:42;20.50;89.00
66608;DHT22;53462;39.616;8.824;2022-08-23T03:41:10;20.60;89.00
66608;DHT22;53462;39.616;8.824;2022-08-23T03:43:36;20.70;88.90
66608;DHT22;53462;39.616;8.824;2022-08-23T03:46:03;20.70;88.50
66608;DHT22;53462;39.616;8.824;2022-08-23T03:48:29;20.70;88.50
66608;DHT22;53462;39.616;8.824;2022-08-23T03:50:55;20.70;88.90
66608;DHT22;53462;39.616;8.824;2022-08-23T03:53:22;20.60;89.30
66608;DHT22;53462;39.616;8.824;2022-08-23T03:55:50;20.60;89.50
66608;DHT22;53462;39.616;8.824;2022-08-23T03:58:18;20.60;89.60
66608;DHT22;53462;39.616;8.824;2022-08-23T04:00:46;20.80;89.40
66608;DHT22;53462;39.616;8.824;2022-08-23T04:03:13;20.80;88.70
66608;DHT22;53462;39.616;8.824;2022-08-23T04:06:09;20.90;88.20
66608;DHT22;53462;39.616;8.824;2022-08-23T04:08:37;20.90;88.00
66608;DHT22;53462;39.616;8.824;2022-08-23T04:11:04;20.90;87.70
66608;DHT22;53462;39.616;8.824;2022-08-23T04:13:31;20.80;88.10
66608;DHT22;53462;39.616;8.824;2022-08-23T04:16:00;20.90;88.30
66608;DHT22;53462;39.616;8.824;2022-08-23T04:18:29;20.90;88.50
66608;DHT22;53462;39.616;8.824;2022-08-23T04:20:58;20.90;88.70
66608;DHT22;53462;39.616;8.824;2022-08-23T04:23:24;20.80;88.80
66608;DHT22;53462;39.616;8.824;2022-08-23T04:25:54;20.90;88.90
66608;DHT22;53462;39.616;8.824;2022-08-23T04:28:21;20.90;88.90
66608;DHT22;53462;39.616;8.824;2022-08-23T04:30:47;20.90;89.00
66608;DHT22;53462;39.616;8.824;2022-08-23T04:33:16;20.90;88.90
66608;DHT22;53462;39.616;8.824;2022-08-23T04:35:43;21.00;88.90
66608;DHT22;53462;39.616;8.824;2022-08-23T04:38:10;21.00;88.50
66608;DHT22;53462;39.616;8.824;2022-08-23T04:40:37;21.00;88.80
66608;DHT22;53462;39.616;8.824;2022-08-23T04:43:21;21.00;88.80
66608;DHT22;53462;39.616;8.824;2022-08-23T04:45:48;20.90;88.40
66608;DHT22;53462;39.616;8.824;2022-08-23T04:48:26;20.80;88.50
66608;DHT22;53462;39.616;8.824;2022-08-23T04:50:52;20.80;89.00
66608;DHT22;53462;39.616;8.824;2022-08-23T04:53:19;20.90;89.10
66608;DHT22;53462;39.616;8.824;2022-08-23T04:56:06;20.90;88.90
66608;DHT22;53462;39.616;8.824;2022-08-23T04:58:33;21.00;89.10
66608;DHT22;53462;39.616;8.824;2022-08-23T05:01:01;21.10;88.80
66608;DHT22;53462;39.616;8.824;2022-08-23T05:03:28;21.10;88.80
66608;DHT22;53462;39.616;8.824;2022-08-23T05:05:56;21.10;88.50
66608;DHT22;53462;39.616;8.824;2022-08-23T05:08:28;21.00;89.40
66608;DHT22;53462;39.616;8.824;2022-08-23T05:10:54;21.10;89.90
66608;DHT22;53462;39.616;8.824;2022-08-23T05:13:20;21.20;89.60
66608;DHT22;53462;39.616;8.824;2022-08-23T05:15:50;21.30;88.90
66608;DHT22;53462;39.616;8.824;2022-08-23T05:18:18;21.10;88.30
66608;DHT22;53462;39.616;8.824;2022-08-23T05:20:45;21.20;88.60
66608;DHT22;53462;39.616;8.824;2022-08-23T05:23:11;21.10;88.40
66608;DHT22;53462;39.616;8.824;2022-08-23T05:25:46;21.30;89.20
66608;DHT22;53462;39.616;8.824;2022-08-23T05:28:20;21.40;88.60
66608;DHT22;53462;39.616;8.824;2022-08-23T05:33:21;21.50;87.60
66608;DHT22;53462;39.616;8.824;2022-08-23T05:35:47;21.60;87.50
66608;DHT22;53462;39.616;8.824;2022-08-23T05:38:13;21.70;87.00
66608;DHT22;53462;39.616;8.824;2022-08-23T05:40:40;21.60;86.80
66608;DHT22;53462;39.616;8.824;2022-08-23T05:43:09;21.80;86.90
66608;DHT22;53462;39.616;8.824;2022-08-23T05:45:36;21.90;86.00
66608;DHT22;53462;39.616;8.824;2022-08-23T05:48:02;22.00;85.70
66608;DHT22;53462;39.616;8.824;2022-08-23T05:50:54;22.20;85.10
66608;DHT22;53462;39.616;8.824;2022-08-23T05:53:21;22.40;84.70
66608;DHT22;53462;39.616;8.824;2022-08-23T05:55:48;22.60;84.30
66608;DHT22;53462;39.616;8.824;2022-08-23T05:58:15;22.90;83.40
66608;DHT22;53462;39.616;8.824;2022-08-23T06:00:42;23.00;82.50
66608;DHT22;53462;39.616;8.824;2022-08-23T06:03:09;23.10;81.60
66608;DHT22;53462;39.616;8.824;2022-08-23T06:05:38;23.20;81.20
66608;DHT22;53462;39.616;8.824;2022-08-23T06:08:05;23.30;80.40
66608;DHT22;53462;39.616;8.824;2022-08-23T06:10:34;23.40;80.30
66608;DHT22;53462;39.616;8.824;2022-08-23T06:13:05;23.70;78.80
66608;DHT22;53462;39.616;8.824;2022-08-23T06:15:31;23.70;78.50
66608;DHT22;53462;39.616;8.824;2022-08-23T06:17:58;24.00;77.80
66608;DHT22;53462;39.616;8.824;2022-08-23T06:20:24;24.10;77.10
66608;DHT22;53462;39.616;8.824;2022-08-23T06:23:16;24.20;76.50
66608;DHT22;53462;39.616;8.824;2022-08-23T06:25:42;24.30;76.10
66608;DHT22;53462;39.616;8.824;2022-08-23T06:28:15;24.30;76.10
66608;DHT22;53462;39.616;8.824;2022-08-23T06:30:42;24.40;75.30
66608;DHT22;53462;39.616;8.824;2022-08-23T06:33:34;24.60;74.50
66608;DHT22;53462;39.616;8.824;2022-08-23T06:36:32;24.80;73.30
66608;DHT22;53462;39.616;8.824;2022-08-23T06:39:14;24.90;73.10
66608;DHT22;53462;39.616;8.824;2022-08-23T06:42:10;25.10;72.20
66608;DHT22;53462;39.616;8.824;2022-08-23T06:44:42;25.30;71.70
66608;DHT22;53462;39.616;8.824;2022-08-23T06:47:28;25.40;70.90
66608;DHT22;53462;39.616;8.824;2022-08-23T06:49:57;25.40;71.10
66608;DHT22;53462;39.616;8.824;2022-08-23T06:52:42;25.70;70.20
66608;DHT22;53462;39.616;8.824;2022-08-23T06:55:31;25.90;68.80
66608;DHT22;53462;39.616;8.824;2022-08-23T06:58:23;25.90;68.50
66608;DHT22;53462;39.616;8.824;2022-08-23T07:01:29;25.70;69.10
66608;DHT22;53462;39.616;8.824;2022-08-23T07:04:21;25.70;69.20
66608;DHT22;53462;39.616;8.824;2022-08-23T07:07:08;25.60;69.30
66608;DHT22;53462;39.616;8.824;2022-08-23T07:09:36;25.60;70.20
66608;DHT22;53462;39.616;8.824;2022-08-23T07:12:02;25.40;69.40
66608;DHT22;53462;39.616;8.824;2022-08-23T07:14:30;25.60;70.30
66608;DHT22;53462;39.616;8.824;2022-08-23T07:16:59;25.70;70.10
66608;DHT22;53462;39.616;8.824;2022-08-23T07:19:29;25.80;69.00
66608;DHT22;53462;39.616;8.824;2022-08-23T07:21:57;25.80;69.40
66608;DHT22;53462;39.616;8.824;2022-08-23T07:24:23;25.80;69.20
66608;DHT22;53462;39.616;8.824;2022-08-23T07:26:51;26.00;68.90
66608;DHT22;53462;39.616;8.824;2022-08-23T07:29:20;26.10;67.70
66608;DHT22;53462;39.616;8.824;2022-08-23T07:31:55;26.30;66.90
66608;DHT22;53462;39.616;8.824;2022-08-23T07:34:22;26.20;66.30
66608;DHT22;53462;39.616;8.824;2022-08-23T07:36:50;26.10;67.00
66608;DHT22;53462;39.616;8.824;2022-08-23T07:39:17;26.30;66.80
66608;DHT22;53462;39.616;8.824;2022-08-23T07:41:44;26.50;65.90
66608;DHT22;53462;39.616;8.824;2022-08-23T07:44:12;26.70;65.00
66608;DHT22;53462;39.616;8.824;2022-08-23T07:46:41;26.90;64.70
66608;DHT22;53462;39.616;8.824;2022-08-23T07:49:10;27.30;63.20
66608;DHT22;53462;39.616;8.824;2022-08-23T07:51:44;27.40;62.10
66608;DHT22;53462;39.616;8.824;2022-08-23T07:54:12;27.20;63.10
66608;DHT22;53462;39.616;8.824;2022-08-23T07:56:48;27.50;62.10
66608;DHT22;53462;39.616;8.824;2022-08-23T07:59:52;27.90;61.80
66608;DHT22;53462;39.616;8.824;2022-08-23T08:02:37;28.00;60.70
66608;DHT22;53462;39.616;8.824;2022-08-23T08:05:06;27.90;61.00
66608;DHT22;53462;39.616;8.824;2022-08-23T08:07:32;28.00;60.70
66608;DHT22;53462;39.616;8.824;2022-08-23T08:09:59;28.20;60.30
66608;DHT22;53462;39.616;8.824;2022-08-23T08:12:30;28.40;59.30
66608;DHT22;53462;39.616;8.824;2022-08-23T08:15:01;28.30;59.40
66608;DHT22;53462;39.616;8.824;2022-08-23T08:17:35;28.70;58.80
66608;DHT22;53462;39.616;8.824;2022-08-23T08:20:19;28.70;58.50
66608;DHT22;53462;39.616;8.824;2022-08-23T08:23:18;28.70;58.30
66608;DHT22;53462;39.616;8.824;2022-08-23T08:26:08;28.90;57.30
66608;DHT22;53462;39.616;8.824;2022-08-23T08:28:36;29.00;57.10
66608;DHT22;53462;39.616;8.824;2022-08-23T08:31:03;28.90;57.10
66608;DHT22;53462;39.616;8.824;2022-08-23T08:33:31;28.80;57.10
66608;DHT22;53462;39.616;8.824;2022-08-23T08:36:00;29.00;56.50
66608;DHT22;53462;39.616;8.824;2022-08-23T08:38:26;29.40;55.40
66608;DHT22;53462;39.616;8.824;2022-08-23T08:41:14;29.30;56.10
66608;DHT22;53462;39.616;8.824;2022-08-23T08:43:57;29.80;54.70
66608;DHT22;53462;39.616;8.824;2022-08-23T08:48:58;30.00;53.90
66608;DHT22;53462;39.616;8.824;2022-08-23T08:51:43;30.10;52.40
66608;DHT22;53462;39.616;8.824;2022-08-23T08:54:17;29.80;51.50
66608;DHT22;53462;39.616;8.824;2022-08-23T08:56:51;29.70;52.10
66608;DHT22;53462;39.616;8.824;2022-08-23T08:59:35;30.30;52.30
66608;DHT22;53462;39.616;8.824;2022-08-23T09:02:06;31.00;49.60
66608;DHT22;53462;39.616;8.824;2022-08-23T09:04:36;30.80;49.90
66608;DHT22;53462;39.616;8.824;2022-08-23T09:12:46;31.70;48.70
66608;DHT22;53462;39.616;8.824;2022-08-23T09:20:34;31.50;47.60
66608;DHT22;53462;39.616;8.824;2022-08-23T09:25:53;32.00;47.30
66608;DHT22;53462;39.616;8.824;2022-08-23T09:28:29;31.90;47.00
66608;DHT22;53462;39.616;8.824;2022-08-23T09:30:57;31.90;46.90
66608;DHT22;53462;39.616;8.824;2022-08-23T09:33:40;31.30;48.10
66608;DHT22;53462;39.616;8.824;2022-08-23T09:36:24;32.20;46.60
66608;DHT22;53462;39.616;8.824;2022-08-23T09:39:01;32.40;46.30
66608;DHT22;53462;39.616;8.824;2022-08-23T09:41:40;32.50;46.40
66608;DHT22;53462;39.616;8.824;2022-08-23T09:44:10;32.60;46.10
66608;DHT22;53462;39.616;8.824;2022-08-23T09:46:39;32.70;45.70
66608;DHT22;53462;39.616;8.824;2022-08-23T09:49:24;33.00;44.50
66608;DHT22;53462;39.616;8.824;2022-08-23T09:51:54;32.10;43.60
66608;DHT22;53462;39.616;8.824;2022-08-23T09:54:27;32.10;44.50
66608;DHT22;53462;39.616;8.824;2022-08-23T09:57:04;32.30;44.70
66608;DHT22;53462;39.616;8.824;2022-08-23T10:07:40;33.80;42.50
66608;DHT22;53462;39.616;8.824;2022-08-23T10:10:26;33.70;41.80
66608;DHT22;53462;39.616;8.824;2022-08-23T10:12:57;33.00;40.70
66608;DHT22;53462;39.616;8.824;2022-08-23T10:18:43;33.10;41.30
66608;DHT22;53462;39.616;8.824;2022-08-23T10:30:04;33.70;40.40
66608;DHT22;53462;39.616;8.824;2022-08-23T10:43:26;34.30;39.80
66608;DHT22;53462;39.616;8.824;2022-08-23T10:45:58;34.50;39.20
66608;DHT22;53462;39.616;8.824;2022-08-23T10:48:37;34.70;39.30
66608;DHT22;53462;39.616;8.824;2022-08-23T10:51:10;34.60;39.70
66608;DHT22;53462;39.616;8.824;2022-08-23T10:53:51;34.60;39.20
66608;DHT22;53462;39.616;8.824;2022-08-23T10:56:22;35.00;38.70
66608;DHT22;53462;39.616;8.824;2022-08-23T11:04:44;34.70;39.70
66608;DHT22;53462;39.616;8.824;2022-08-23T11:07:36;35.30;38.30
66608;DHT22;53462;39.616;8.824;2022-08-23T11:13:21;36.60;36.40
66608;DHT22;53462;39.616;8.824;2022-08-23T11:16:06;35.80;36.80
66608;DHT22;53462;39.616;8.824;2022-08-23T11:18:48;35.30;36.20
66608;DHT22;53462;39.616;8.824;2022-08-23T11:31:44;35.30;41.70
66608;DHT22;53462;39.616;8.824;2022-08-23T11:40:08;36.30;40.20
66608;DHT22;53462;39.616;8.824;2022-08-23T11:45:27;35.90;40.00
66608;DHT22;53462;39.616;8.824;2022-08-23T11:48:48;36.40;39.50
66608;DHT22;53462;39.616;8.824;2022-08-23T11:51:25;36.20;39.60
66608;DHT22;53462;39.616;8.824;2022-08-23T12:05:21;37.00;38.70
66608;DHT22;53462;39.616;8.824;2022-08-23T12:18:59;36.60;39.20
66608;DHT22;53462;39.616;8.824;2022-08-23T12:21:44;36.70;38.90
66608;DHT22;53462;39.616;8.824;2022-08-23T12:24:40;36.90;39.20
66608;DHT22;53462;39.616;8.824;2022-08-23T12:40:36;36.10;40.40
66608;DHT22;53462;39.616;8.824;2022-08-23T12:43:15;36.30;39.90
66608;DHT22;53462;39.616;8.824;2022-08-23T12:45:45;36.10;39.90
66608;DHT22;53462;39.616;8.824;2022-08-23T12:48:17;36.00;40.50
66608;DHT22;53462;39.616;8.824;2022-08-23T12:50:53;35.70;41.10
66608;DHT22;53462;39.616;8.824;2022-08-23T12:53:31;35.70;41.20
66608;DHT22;53462;39.616;8.824;2022-08-23T12:56:02;35.80;40.80
66608;DHT22;53462;39.616;8.824;2022-08-23T12:58:31;36.00;40.60
66608;DHT22;53462;39.616;8.824;2022-08-23T13:01:01;36.10;40.90
66608;DHT22;53462;39.616;8.824;2022-08-23T13:03:40;35.80;41.30
66608;DHT22;53462;39.616;8.824;2022-08-23T13:06:15;35.70;41.50
66608;DHT22;53462;39.616;8.824;2022-08-23T13:08:49;35.70;41.80
66608;DHT22;53462;39.616;8.824;2022-08-23T13:11:19;35.60;42.60
66608;DHT22;53462;39.616;8.824;2022-08-23T13:13:49;35.50;42.80
66608;DHT22;53462;39.616;8.824;2022-08-23T13:19:29;35.30;43.20
66608;DHT22;53462;39.616;8.824;2022-08-23T13:25:02;35.00;43.10
66608;DHT22;53462;39.616;8.824;2022-08-23T13:30:17;34.90;43.60
66608;DHT22;53462;39.616;8.824;2022-08-23T13:32:49;34.80;43.60
66608;DHT22;53462;39.616;8.824;2022-08-23T13:35:31;34.60;43.00
66608;DHT22;53462;39.616;8.824;2022-08-23T13:40:44;34.40;43.00
66608;DHT22;53462;39.616;8.824;2022-08-23T13:43:16;34.20;43.50
66608;DHT22;53462;39.616;8.824;2022-08-23T13:45:46;34.10;43.10
66608;DHT22;53462;39.616;8.824;2022-08-23T13:48:20;34.30;43.20
66608;DHT22;53462;39.616;8.824;2022-08-23T13:50:47;34.10;43.60
66608;DHT22;53462;39.616;8.824;2022-08-23T13:53:13;34.10;44.60
66608;DHT22;53462;39.616;8.824;2022-08-23T13:55:49;34.30;43.70
66608;DHT22;53462;39.616;8.824;2022-08-23T13:58:28;34.00;44.70
66608;DHT22;53462;39.616;8.824;2022-08-23T14:00:55;33.80;45.40
66608;DHT22;53462;39.616;8.824;2022-08-23T14:03:23;33.40;45.30
66608;DHT22;53462;39.616;8.824;2022-08-23T14:05:49;33.20;46.10
66608;DHT22;53462;39.616;8.824;2022-08-23T14:08:15;33.40;46.40
66608;DHT22;53462;39.616;8.824;2022-08-23T14:10:42;33.50;45.70
66608;DHT22;53462;39.616;8.824;2022-08-23T14:13:08;33.50;45.50
66608;DHT22;53462;39.616;8.824;2022-08-23T14:15:36;33.40;45.60
66608;DHT22;53462;39.616;8.824;2022-08-23T14:18:03;33.40;46.40
66608;DHT22;53462;39.616;8.824;2022-08-23T14:20:29;33.00;46.80
66608;DHT22;53462;39.616;8.824;2022-08-23T14:22:55;33.10;46.70
66608;DHT22;53462;39.616;8.824;2022-08-23T14:25:21;33.20;46.80
66608;DHT22;53462;39.616;8.824;2022-08-23T14:27:47;33.00;47.50
66608;DHT22;53462;39.616;8.824;2022-08-23T14:30:29;33.10;47.30
66608;DHT22;53462;39.616;8.824;2022-08-23T14:32:56;32.70;48.00
66608;DHT22;53462;39.616;8.824;2022-08-23T14:35:22;32.70;48.40
66608;DHT22;53462;39.616;8.824;2022-08-23T14:37:48;32.80;48.20
66608;DHT22;53462;39.616;8.824;2022-08-23T14:40:14;32.80;48.00
66608;DHT22;53462;39.616;8.824;2022-08-23T14:42:41;32.70;48.20
66608;DHT22;53462;39.616;8.824;2022-08-23T14:45:07;32.50;48.50
66608;DHT22;53462;39.616;8.824;2022-08-23T14:47:34;32.20;49.70
66608;DHT22;53462;39.616;8.824;2022-08-23T14:50:02;32.40;49.60
66608;DHT22;53462;39.616;8.824;2022-08-23T14:52:28;32.20;49.90
66608;DHT22;53462;39.616;8.824;2022-08-23T14:54:54;32.20;49.40
66608;DHT22;53462;39.616;8.824;2022-08-23T14:57:20;32.10;49.70
66608;DHT22;53462;39.616;8.824;2022-08-23T14:59:46;31.90;50.20
66608;DHT22;53462;39.616;8.824;2022-08-23T15:02:15;31.80;50.30
66608;DHT22;53462;39.616;8.824;2022-08-23T15:04:43;31.50;51.00
66608;DHT22;53462;39.616;8.824;2022-08-23T15:07:09;31.40;51.10
66608;DHT22;53462;39.616;8.824;2022-08-23T15:09:35;31.60;51.00
66608;DHT22;53462;39.616;8.824;2022-08-23T15:12:01;31.60;50.70
66608;DHT22;53462;39.616;8.824;2022-08-23T15:14:28;31.20;51.70
66608;DHT22;53462;39.616;8.824;2022-08-23T15:16:54;31.30;51.40
66608;DHT22;53462;39.616;8.824;2022-08-23T15:19:20;31.40;50.60
66608;DHT22;53462;39.616;8.824;2022-08-23T15:21:46;31.40;51.30
66608;DHT22;53462;39.616;8.824;2022-08-23T15:24:12;31.30;51.10
66608;DHT22;53462;39.616;8.824;2022-08-23T15:26:38;31.20;51.40
66608;DHT22;53462;39.616;8.824;2022-08-23T15:29:05;31.10;51.20
66608;DHT22;53462;39.616;8.824;2022-08-23T15:31:31;30.90;52.10
66608;DHT22;53462;39.616;8.824;2022-08-23T15:33:57;31.10;51.70
66608;DHT22;53462;39.616;8.824;2022-08-23T15:36:23;31.00;52.20
66608;DHT22;53462;39.616;8.824;2022-08-23T15:38:50;30.90;51.90
66608;DHT22;53462;39.616;8.824;2022-08-23T15:41:18;31.00;51.80
66608;DHT22;53462;39.616;8.824;2022-08-23T15:43:44;30.90;52.00
66608;DHT22;53462;39.616;8.824;2022-08-23T15:46:17;30.90;52.70
66608;DHT22;53462;39.616;8.824;2022-08-23T15:49:00;30.80;52.60
66608;DHT22;53462;39.616;8.824;2022-08-23T15:51:28;30.80;52.90
66608;DHT22;53462;39.616;8.824;2022-08-23T15:53:54;30.60;53.60
66608;DHT22;53462;39.616;8.824;2022-08-23T15:56:43;30.60;54.00
66608;DHT22;53462;39.616;8.824;2022-08-23T15:59:15;30.30;53.80
66608;DHT22;53462;39.616;8.824;2022-08-23T16:01:43;30.30;54.50
66608;DHT22;53462;39.616;8.824;2022-08-23T16:04:10;30.30;54.60
66608;DHT22;53462;39.616;8.824;2022-08-23T16:06:37;30.20;54.90
66608;DHT22;53462;39.616;8.824;2022-08-23T16:09:06;30.30;54.70
66608;DHT22;53462;39.616;8.824;2022-08-23T16:11:34;30.10;55.00
66608;DHT22;53462;39.616;8.824;2022-08-23T16:14:00;29.80;56.20
66608;DHT22;53462;39.616;8.824;2022-08-23T16:16:30;29.80;56.40
66608;DHT22;53462;39.616;8.824;2022-08-23T16:18:57;29.60;56.30
66608;DHT22;53462;39.616;8.824;2022-08-23T16:21:26;29.50;56.50
66608;DHT22;53462;39.616;8.824;2022-08-23T16:23:54;29.40;56.30
66608;DHT22;53462;39.616;8.824;2022-08-23T16:26:24;29.30;57.50
66608;DHT22;53462;39.616;8.824;2022-08-23T16:28:53;29.40;57.30
66608;DHT22;53462;39.616;8.824;2022-08-23T16:31:19;29.40;57.30
66608;DHT22;53462;39.616;8.824;2022-08-23T16:33:45;29.30;57.00
66608;DHT22;53462;39.616;8.824;2022-08-23T16:36:15;29.20;57.50
66608;DHT22;53462;39.616;8.824;2022-08-23T16:38:44;29.20;57.70
66608;DHT22;53462;39.616;8.824;2022-08-23T16:41:11;29.10;57.30
66608;DHT22;53462;39.616;8.824;2022-08-23T16:43:37;29.10;57.10
66608;DHT22;53462;39.616;8.824;2022-08-23T16:46:04;29.10;57.30
66608;DHT22;53462;39.616;8.824;2022-08-23T16:48:30;29.20;56.50
66608;DHT22;53462;39.616;8.824;2022-08-23T16:50:56;29.10;56.80
66608;DHT22;53462;39.616;8.824;2022-08-23T16:53:22;29.10;57.30
66608;DHT22;53462;39.616;8.824;2022-08-23T16:55:51;29.00;57.80
66608;DHT22;53462;39.616;8.824;2022-08-23T16:58:18;28.80;57.70
66608;DHT22;53462;39.616;8.824;2022-08-23T17:00:44;28.70;58.20
66608;DHT22;53462;39.616;8.824;2022-08-23T17:03:10;28.50;58.60
66608;DHT22;53462;39.616;8.824;2022-08-23T17:05:36;28.60;58.70
66608;DHT22;53462;39.616;8.824;2022-08-23T17:08:03;28.50;58.50
66608;DHT22;53462;39.616;8.824;2022-08-23T17:10:29;28.40;59.90
66608;DHT22;53462;39.616;8.824;2022-08-23T17:12:55;28.20;60.30
66608;DHT22;53462;39.616;8.824;2022-08-23T17:15:28;28.30;60.40
66608;DHT22;53462;39.616;8.824;2022-08-23T17:17:55;28.20;60.70
66608;DHT22;53462;39.616;8.824;2022-08-23T17:20:23;28.10;61.30
66608;DHT22;53462;39.616;8.824;2022-08-23T17:22:51;28.10;61.40
66608;DHT22;53462;39.616;8.824;2022-08-23T17:25:18;28.00;61.20
66608;DHT22;53462;39.616;8.824;2022-08-23T17:27:46;28.00;61.10
66608;DHT22;53462;39.616;8.824;2022-08-23T17:30:16;27.90;61.60
66608;DHT22;53462;39.616;8.824;2022-08-23T17:32:43;27.80;61.90
66608;DHT22;53462;39.616;8.824;2022-08-23T17:35:11;27.70;62.50
66608;DHT22;53462;39.616;8.824;2022-08-23T17:37:37;27.70;62.70
66608;DHT22;53462;39.616;8.824;2022-08-23T17:40:06;27.60;62.80
66608;DHT22;53462;39.616;8.824;2022-08-23T17:42:33;27.60;62.70
66608;DHT22;53462;39.616;8.824;2022-08-23T17:44:59;27.60;62.50
66608;DHT22;53462;39.616;8.824;2022-08-23T17:47:25;27.40;62.90
66608;DHT22;53462;39.616;8.824;2022-08-23T17:49:52;27.30;63.10
66608;DHT22;53462;39.616;8.824;2022-08-23T17:52:19;27.30;63.10
66608;DHT22;53462;39.616;8.824;2022-08-23T17:54:45;27.30;63.40
66608;DHT22;53462;39.616;8.824;2022-08-23T17:57:11;27.30;63.50
66608;DHT22;53462;39.616;8.824;2022-08-23T17:59:38;27.10;63.90
66608;DHT22;53462;39.616;8.824;2022-08-23T18:02:04;27.10;63.70
66608;DHT22;53462;39.616;8.824;2022-08-23T18:04:31;27.00;64.10
66608;DHT22;53462;39.616;8.824;2022-08-23T18:06:57;27.00;64.40